Latest Coastal Weather Observations for Neptune Island

IDT60701

Issued at 8:25 am EST Tuesday 23 September 2014 (issued every 10 minutes, with the page automatically refreshed every 10 minutes)

About coastal observations | Map of coastal stations | Coastal observations for TAS | Marine services | Other Formats
Station Details ID: 018115 Name: NEPTUNE ISLAND Lat: -35.34 Lon: 136.12 Height: 32.0 m
Data from the previous 72 hours. | See also: Recent months at Neptune Island
Date/Time
EST
Temp

°C
Wind Pressure Rain
since 9am
mm
Weather Cloud Vis
km
Sea
Height
m
Swell
Dir
 
Speed
knots
Gust
knots
hPa Trend Height
m
Period
s
Dir
23/08:00am 17.0 N 17 20 1017.8 - 0.0 - - - - - - -
23/07:30am 16.2 N 14 16 1017.8 - 0.0 - - - - - - -
23/07:00am 15.6 N 15 16 1017.4 - 0.0 - - - - - - -
23/06:30am 15.7 NNE 19 23 1016.9 - 0.0 - - - - - - -
23/06:00am 15.8 NNE 19 23 1016.5 - 0.0 - - - - - - -
23/05:30am 15.9 NNE 19 24 1016.4 - 0.0 - - - - - - -
23/05:00am 16.0 NNE 16 21 1016.6 - 0.0 - - - - - - -
23/04:30am 15.8 NNE 16 18 1016.7 - 0.0 - - - - - - -
23/04:00am 16.0 NNE 13 16 1016.7 - 0.0 - - - - - - -
23/03:30am 16.2 NNE 14 18 1016.8 - 0.0 - - - - - - -
23/03:17am 15.8 NNE 13 15 1017.0 - 0.0 - - - - - - -
23/03:00am 16.0 NE 20 23 1017.0 - 0.0 - - - - - - -
23/02:30am 16.0 NE 15 18 1017.6 - 0.0 - - - - - - -
23/02:00am 16.2 ENE 18 22 1017.8 - 0.0 - - - - - - -
23/01:30am 16.3 ENE 20 23 1018.0 - 0.0 - - - - - - -
23/01:00am 16.7 ENE 21 23 1018.1 - 0.0 - - - - - - -
23/12:30am 17.2 ENE 21 24 1018.2 - 0.0 - - - - - - -
23/12:00am 16.8 ENE 22 24 1018.4 - 0.0 - - - - - - -
 
Date/Time
EST
Temp

°C
Wind Pressure Rain
since 9am
mm
Weather Cloud Vis
km
Sea
Height
m
Swell
Dir
 
Speed
knots
Gust
knots
hPa Trend Height
m
Period
s
Dir
22/11:30pm 16.3 ENE 20 24 1018.5 - 0.0 - - - - - - -
22/11:00pm 16.3 ENE 18 21 1019.0 - 0.0 - - - - - - -
22/10:30pm 16.1 ENE 18 20 1019.1 - 0.0 - - - - - - -
22/10:00pm 16.4 ENE 19 21 1019.2 - 0.0 - - - - - - -
22/09:30pm 16.2 E 18 20 1019.3 - 0.0 - - - - - - -
22/09:00pm 16.3 ENE 15 17 1019.3 - 0.0 - - - - - - -
22/08:30pm 17.1 ENE 17 18 1019.1 - 0.0 - - - - - - -
22/08:00pm 17.0 ENE 16 18 1019.0 - 0.0 - - - - - - -
22/07:30pm 16.9 ENE 17 19 1018.8 - 0.0 - - - - - - -
22/07:00pm 17.2 NE 20 22 1018.4 - 0.0 - - - - - - -
22/06:30pm 17.2 NE 20 23 1018.1 - 0.0 - - - - - - -
22/06:00pm 17.4 NE 16 20 1018.1 - 0.0 - - - - - - -
22/05:30pm 17.5 NE 19 22 1017.9 - 0.0 - - - - - - -
22/05:00pm 17.9 NE 18 22 1017.8 - 0.0 - - - - - - -
22/04:30pm 17.9 NE 17 20 1018.0 - 0.0 - - - - - - -
22/04:00pm 18.2 NE 14 20 1018.3 - 0.0 - - - - - - -
22/03:30pm 18.3 NE 13 18 1018.8 - 0.0 - - - - - - -
22/03:00pm 18.1 NNE 12 16 1019.2 - 0.0 - - - - - - -
22/02:30pm 17.8 NNE 12 17 1019.4 - 0.0 - - - - - - -
22/02:00pm 17.7 NNE 13 18 1019.9 - 0.0 - - - - - - -
22/01:30pm 17.7 NNE 15 19 1020.1 - 0.0 - - - - - - -
22/01:00pm 17.7 NNE 19 23 1020.4 - 0.0 - - - - - - -
22/12:30pm 18.2 N 15 18 1021.0 - 0.0 - - - - - - -
22/12:00pm 18.6 N 13 16 1021.8 - 0.0 - - - - - - -
22/11:30am 18.3 NNE 20 22 1021.8 - 0.0 - - - - - - -
22/11:00am 18.2 N 18 22 1022.1 - 0.0 - - - - - - -
22/10:30am 17.5 N 17 20 1022.4 - 0.0 - - - - - - -
22/10:00am 17.5 NNE 19 21 1022.6 - 0.0 - - - - - - -
22/09:30am 16.9 NNE 19 21 1022.5 - 0.0 - - - - - - -
22/09:00am 16.5 N 21 24 1022.5 - 0.0 - - - - - - -
22/08:30am 16.2 N 19 21 1022.6 - 0.0 - - - - - - -
22/08:00am 15.8 N 18 21 1022.5 - 0.0 - - - - - - -
22/07:30am 15.3 NNE 17 20 1022.5 - 0.0 - - - - - - -
22/07:00am 15.2 NNE 19 21 1022.3 - 0.0 - - - - - - -
22/06:30am 15.2 NNE 20 22 1022.2 - 0.0 - - - - - - -
22/06:00am 15.4 NNE 20 23 1022.1 - 0.0 - - - - - - -
22/05:30am 15.4 NNE 19 22 1022.0 - 0.0 - - - - - - -
22/05:00am 15.4 NNE 19 22 1021.9 - 0.0 - - - - - - -
22/04:30am 15.3 NNE 17 20 1022.0 - 0.0 - - - - - - -
22/04:00am 15.4 NNE 15 20 1022.2 - 0.0 - - - - - - -
22/03:30am 15.4 NNE 14 18 1022.5 - 0.0 - - - - - - -
22/03:00am 15.3 NE 18 23 1022.5 - 0.0 - - - - - - -
22/02:30am 15.5 NE 19 24 1022.8 - 0.0 - - - - - - -
22/02:00am 15.4 NE 20 23 1023.0 - 0.0 - - - - - - -
22/01:30am 15.5 NE 21 23 1023.4 - 0.0 - - - - - - -
22/01:00am 15.5 NE 18 20 1023.8 - 0.0 - - - - - - -
22/12:30am 15.3 ENE 18 20 1024.0 - 0.0 - - - - - - -
22/12:00am 15.1 ENE 17 19 1024.4 - 0.0 - - - - - - -
 
Date/Time
EST
Temp

°C
Wind Pressure Rain
since 9am
mm
Weather Cloud Vis
km
Sea
Height
m
Swell
Dir
 
Speed
knots
Gust
knots
hPa Trend Height
m
Period
s
Dir
21/11:30pm 15.7 ENE 17 19 1024.5 - 0.0 - - - - - - -
21/11:00pm 16.1 ENE 15 17 1024.7 - 0.0 - - - - - - -
21/10:30pm 16.1 NE 16 18 1024.8 - 0.0 - - - - - - -
21/10:00pm 15.8 ENE 15 17 1024.9 - 0.0 - - - - - - -
21/09:30pm 15.9 ENE 15 17 1025.1 - 0.0 - - - - - - -
21/09:00pm 15.8 ENE 15 16 1025.2 - 0.0 - - - - - - -
21/08:30pm 15.7 ENE 15 17 1025.1 - 0.0 - - - - - - -
21/08:00pm 15.7 ENE 15 16 1025.1 - 0.0 - - - - - - -
21/07:30pm 15.6 ENE 15 17 1024.9 - 0.0 - - - - - - -
21/07:00pm 15.6 ENE 13 15 1024.9 - 0.0 - - - - - - -
21/06:30pm 15.8 ENE 12 13 1025.2 - 0.0 - - - - - - -
21/06:00pm 16.5 ENE 9 11 1025.4 - 0.0 - - - - - - -
21/05:30pm 16.5 NE 11 11 1025.3 - 0.0 - - - - - - -
21/05:00pm 17.4 NE 9 11 1025.4 - 0.0 - - - - - - -
21/04:30pm 17.6 NE 10 13 1025.6 - 0.0 - - - - - - -
21/04:00pm 17.7 NE 8 11 1025.7 - 0.0 - - - - - - -
21/03:30pm 17.8 NE 11 15 1025.7 - 0.0 - - - - - - -
21/03:00pm 17.3 NE 14 16 1026.0 - 0.0 - - - - - - -
21/02:30pm 17.4 NE 14 16 1026.1 - 0.0 - - - - - - -
21/02:00pm 17.5 NE 14 15 1026.4 - 0.0 - - - - - - -
21/01:30pm 17.2 NE 14 16 1026.8 - 0.0 - - - - - - -
21/01:00pm 17.8 NE 14 17 1027.2 - 0.0 - - - - - - -
21/12:30pm 17.5 NE 12 17 1027.4 - 0.0 - - - - - - -
21/12:00pm 17.8 NE 14 17 1027.7 - 0.0 - - - - - - -
21/11:30am 16.9 NE 16 19 1027.9 - 0.0 - - - - - - -
21/11:00am 16.1 NE 18 19 1028.1 - 0.0 - - - - - - -
21/10:30am 15.9 ENE 17 20 1028.5 - 0.0 - - - - - - -
21/10:00am 15.6 ENE 17 21 1028.7 - 0.0 - - - - - - -
21/09:30am 15.5 ENE 18 20 1028.7 - 0.0 - - - - - - -
21/09:00am 15.2 ENE 17 20 1028.6 - 0.0 - - - - - - -
21/08:30am 14.9 ENE 18 20 1028.4 - 0.0 - - - - - - -
21/08:00am 14.6 ENE 20 23 1027.9 - 0.0 - - - - - - -
21/07:30am 14.4 ENE 20 23 1027.6 - 0.0 - - - - - - -
21/07:00am 14.3 ENE 19 22 1027.4 - 0.0 - - - - - - -
21/06:30am 14.5 ENE 19 21 1027.3 - 0.0 - - - - - - -
21/06:00am 14.4 ENE 19 21 1027.0 - 0.0 - - - - - - -
21/05:30am 14.5 ENE 18 21 1026.8 - 0.0 - - - - - - -
21/05:00am 14.3 ENE 18 20 1026.7 - 0.0 - - - - - - -
21/04:30am 14.3 ENE 19 22 1026.5 - 0.0 - - - - - - -
21/04:00am 14.3 ENE 19 23 1026.2 - 0.0 - - - - - - -
21/03:30am 14.4 ENE 19 22 1026.3 - 0.0 - - - - - - -
21/03:00am 14.5 ENE 20 24 1026.3 - 0.0 - - - - - - -
21/02:30am 14.6 ENE 20 23 1026.2 - 0.0 - - - - - - -
21/02:00am 14.6 ENE 20 22 1026.5 - 0.0 - - - - - - -
21/01:30am 14.6 ENE 21 24 1026.6 - 0.0 - - - - - - -
21/01:00am 14.5 ENE 21 25 1026.5 - 0.0 - - - - - - -
21/12:30am 14.5 ENE 21 25 1026.7 - 0.0 - - - - - - -
21/12:00am 14.7 ENE 22 26 1026.6 - 0.0 - - - - - - -
 
Date/Time
EST
Temp

°C
Wind Pressure Rain
since 9am
mm
Weather Cloud Vis
km
Sea
Height
m
Swell
Dir
 
Speed
knots
Gust
knots
hPa Trend Height
m
Period
s
Dir
20/11:30pm 14.7 ENE 20 25 1026.6 - 0.0 - - - - - - -
20/11:00pm 14.8 ENE 22 27 1026.6 - 0.0 - - - - - - -
20/10:30pm 14.9 E 20 23 1026.7 - 0.0 - - - - - - -
20/10:00pm 15.2 E 20 25 1026.7 - 0.0 - - - - - - -
20/09:30pm 15.4 E 20 25 1026.4 - 0.0 - - - - - - -
20/09:00pm 15.5 E 20 25 1026.2 - 0.0 - - - - - - -
20/08:30pm 15.6 E 19 24 1026.0 - 0.0 - - - - - - -
20/08:00pm 15.4 E 17 20 1025.7 - 0.0 - - - - - - -
20/07:30pm 14.9 E 13 15 1025.3 - 0.0 - - - - - - -
20/07:00pm 14.7 E 13 15 1025.1 - 0.0 - - - - - - -
20/06:30pm 14.9 ESE 12 15 1024.7 - 0.0 - - - - - - -
20/06:00pm 15.7 ESE 12 14 1024.6 - 0.0 - - - - - - -
20/05:30pm 16.1 ESE 12 15 1024.2 - 0.0 - - - - - - -
20/05:00pm 16.4 E 14 16 1023.9 - 0.0 - - - - - - -
20/04:30pm 17.1 E 14 16 1023.6 - 0.0 - - - - - - -
20/04:00pm 17.4 E 11 14 1023.5 - 0.0 - - - - - - -
20/03:30pm 17.3 ENE 8 10 1023.8 - 0.0 - - - - - - -
20/03:00pm 16.9 ENE 9 10 1023.7 - 0.0 - - - - - - -
20/02:30pm 18.1 NE 8 11 1023.7 - 0.0 - - - - - - -
20/02:00pm 18.0 NE 8 11 1023.9 - 0.0 - - - - - - -
20/01:30pm 17.3 NE 9 13 1024.0 - 0.0 - - - - - - -
20/01:00pm 16.8 NE 14 18 1023.9 - 0.0 - - - - - - -
20/12:30pm 16.2 NE 15 18 1024.3 - 0.0 - - - - - - -
20/12:00pm 15.8 ENE 17 19 1024.4 - 0.0 - - - - - - -
20/11:30am 15.8 ENE 16 19 1024.8 - 0.0 - - - - - - -
20/11:00am 15.5 ENE 17 20 1024.6 - 0.0 - - - - - - -
20/10:30am 15.8 ENE 17 19 1024.9 - 0.0 - - - - - - -
20/10:00am 15.6 ENE 15 19 1025.0 - 0.0 - - - - - - -
20/09:30am 15.3 ENE 16 19 1024.9 - 0.0 - - - - - - -
20/09:00am 14.9 ENE 17 19 1024.5 - 0.0 - - - - - - -

Other Formats:

Comma delimited format used in spreadsheet applications
http://www.bom.gov.au/fwo/IDT60701/IDT60701.94804.axf

JavaScript Object Notation format (JSON) in row-major order
http://www.bom.gov.au/fwo/IDT60701/IDT60701.94804.json